createdAt,value
2018-06-10T00:00:18.677Z,9.20
2018-06-10T00:02:48.003Z,9.37
2018-06-10T00:05:16.354Z,9.97
2018-06-10T00:07:44.661Z,9.20
2018-06-10T00:10:13.201Z,10.23
2018-06-10T00:12:41.624Z,10.20
2018-06-10T00:15:10.036Z,9.17
2018-06-10T00:17:38.324Z,8.57
2018-06-10T00:20:06.757Z,8.43
2018-06-10T00:22:36.077Z,8.80
2018-06-10T00:25:04.553Z,10.00
2018-06-10T00:27:33.037Z,10.53
2018-06-10T00:30:02.726Z,9.13
2018-06-10T00:32:31.092Z,9.30
2018-06-10T00:34:59.387Z,9.57
2018-06-10T00:37:27.786Z,10.13
2018-06-10T00:39:56.190Z,10.60
2018-06-10T00:42:24.541Z,9.67
2018-06-10T00:44:52.978Z,9.70
2018-06-10T00:47:21.401Z,10.70
2018-06-10T00:49:50.565Z,10.47
2018-06-10T00:52:22.709Z,10.13
2018-06-10T00:54:52.206Z,10.90
2018-06-10T00:57:20.509Z,11.47
2018-06-10T00:59:48.830Z,10.80
2018-06-10T01:02:17.161Z,11.73
2018-06-10T01:04:45.481Z,11.03
2018-06-10T01:07:14.865Z,11.23
2018-06-10T01:09:43.473Z,11.30
2018-06-10T01:12:12.895Z,12.37
2018-06-10T01:14:41.232Z,11.20
2018-06-10T01:17:09.550Z,12.53
2018-06-10T01:19:37.908Z,11.73
2018-06-10T01:22:06.273Z,11.37
2018-06-10T01:24:34.670Z,12.60
2018-06-10T01:27:03.000Z,12.37
2018-06-10T01:29:31.345Z,12.70
2018-06-10T01:31:59.675Z,13.40
2018-06-10T01:34:29.112Z,12.90
2018-06-10T01:36:57.461Z,13.63
2018-06-10T01:39:25.809Z,15.90
2018-06-10T01:41:56.161Z,14.53
2018-06-10T01:44:24.493Z,15.37
2018-06-10T01:46:52.822Z,16.30
2018-06-10T01:49:21.177Z,14.90
2018-06-10T01:51:49.494Z,16.00
2018-06-10T01:54:18.935Z,15.90
2018-06-10T01:56:47.230Z,14.73
2018-06-10T01:59:15.563Z,17.77
2018-06-10T02:01:43.905Z,17.23
2018-06-10T02:04:13.207Z,17.93
2018-06-10T02:06:41.538Z,17.20
2018-06-10T02:09:09.841Z,16.43
2018-06-10T02:11:38.193Z,15.73
2018-06-10T02:14:06.540Z,15.43
2018-06-10T02:16:34.873Z,15.30
2018-06-10T02:19:03.150Z,15.07
2018-06-10T02:21:31.491Z,17.93
2018-06-10T02:23:59.847Z,16.20
2018-06-10T02:26:28.225Z,17.30
2018-06-10T02:28:57.509Z,18.00
2018-06-10T02:31:26.782Z,22.97
2018-06-10T02:33:55.101Z,21.10
2018-06-10T02:36:23.486Z,21.27
2018-06-10T02:38:52.867Z,23.33
2018-06-10T02:41:21.163Z,23.40
2018-06-10T02:43:49.451Z,23.50
2018-06-10T02:46:17.803Z,22.30
2018-06-10T02:48:46.135Z,23.83
2018-06-10T02:51:14.511Z,24.63
2018-06-10T02:53:42.843Z,25.20
2018-06-10T02:56:11.129Z,25.53
2018-06-10T02:58:39.469Z,26.30
2018-06-10T03:01:07.788Z,27.63
2018-06-10T03:03:36.120Z,30.60
2018-06-10T03:06:04.483Z,32.40
2018-06-10T03:08:32.923Z,37.00
2018-06-10T03:11:01.296Z,34.37
2018-06-10T03:13:29.604Z,36.20
2018-06-10T03:15:57.878Z,38.87
2018-06-10T03:18:27.257Z,37.80
2018-06-10T03:20:55.598Z,43.98
2018-06-10T03:23:23.895Z,38.90
2018-06-10T03:25:52.245Z,37.57
2018-06-10T03:28:20.573Z,34.93
2018-06-10T03:30:48.909Z,41.27
2018-06-10T03:33:17.225Z,44.87
2018-06-10T03:35:45.588Z,42.67
2018-06-10T03:38:13.897Z,45.60
2018-06-10T03:40:42.213Z,42.70
2018-06-10T03:43:10.561Z,43.33
2018-06-10T03:45:38.917Z,42.10
2018-06-10T03:48:07.222Z,40.73
2018-06-10T03:50:35.572Z,43.13
2018-06-10T03:53:03.937Z,39.67
2018-06-10T03:55:32.267Z,38.43
2018-06-10T03:58:00.848Z,39.80
2018-06-10T04:00:29.250Z,38.60
2018-06-10T04:02:57.578Z,41.10
2018-06-10T04:05:25.961Z,38.40
2018-06-10T04:07:55.329Z,39.57
2018-06-10T04:10:24.732Z,35.30
2018-06-10T04:12:53.085Z,33.30
2018-06-10T04:15:21.373Z,34.97
2018-06-10T04:17:49.767Z,32.70
2018-06-10T04:20:18.107Z,30.40
2018-06-10T04:22:46.479Z,31.60
2018-06-10T04:25:15.746Z,30.43
2018-06-10T04:27:44.101Z,31.30
2018-06-10T04:30:14.378Z,28.47
2018-06-10T04:32:42.723Z,28.57
2018-06-10T04:35:11.097Z,26.77
2018-06-10T04:37:39.458Z,24.07
2018-06-10T04:40:07.799Z,21.57
2018-06-10T04:42:37.135Z,20.70
2018-06-10T04:45:05.477Z,19.67
2018-06-10T04:47:33.848Z,18.03
2018-06-10T04:50:02.176Z,15.40
2018-06-10T04:52:30.557Z,17.27
2018-06-10T04:54:58.846Z,17.57
2018-06-10T04:57:28.181Z,17.60
2018-06-10T04:59:56.510Z,16.47
2018-06-10T05:02:24.841Z,16.90
2018-06-10T05:04:53.268Z,16.00
2018-06-10T05:07:21.562Z,14.50
2018-06-10T05:09:49.964Z,13.53
2018-06-10T05:12:18.331Z,13.10
2018-06-10T05:14:46.789Z,11.90
2018-06-10T05:17:15.109Z,13.30
2018-06-10T05:19:43.554Z,13.43
2018-06-10T05:22:11.873Z,13.70
2018-06-10T05:24:40.309Z,15.10
2018-06-10T05:27:08.722Z,13.00
2018-06-10T05:29:38.130Z,14.30
2018-06-10T05:32:06.616Z,13.40
2018-06-10T05:34:36.943Z,13.20
2018-06-10T05:37:06.321Z,14.40
2018-06-10T05:39:34.729Z,13.03
2018-06-10T05:42:03.084Z,14.73
2018-06-10T05:44:36.905Z,12.60
2018-06-10T05:47:08.328Z,11.70
2018-06-10T05:49:36.653Z,10.40
2018-06-10T05:52:05.016Z,10.40
2018-06-10T05:54:33.381Z,9.40
2018-06-10T05:57:01.819Z,10.37
2018-06-10T05:59:30.136Z,9.10
2018-06-10T06:01:59.523Z,11.30
2018-06-10T06:04:27.953Z,11.10
2018-06-10T06:06:56.280Z,9.37
2018-06-10T06:09:24.660Z,9.37
2018-06-10T06:11:52.985Z,9.57
2018-06-10T06:14:21.310Z,8.93
2018-06-10T06:16:50.645Z,8.47
2018-06-10T06:19:18.989Z,8.03
2018-06-10T06:21:47.372Z,7.27
2018-06-10T06:24:15.727Z,7.20
2018-06-10T06:26:44.210Z,6.27
2018-06-10T06:29:12.605Z,7.07
2018-06-10T06:31:41.069Z,6.13
2018-06-10T06:34:09.488Z,6.70
2018-06-10T06:36:37.852Z,6.87
2018-06-10T06:39:07.853Z,7.50
2018-06-10T06:41:36.248Z,6.40
2018-06-10T06:44:04.556Z,6.10
2018-06-10T06:46:32.955Z,5.77
2018-06-10T06:49:02.253Z,5.63
2018-06-10T06:51:30.585Z,5.30
2018-06-10T06:53:59.013Z,6.30
2018-06-10T06:56:27.318Z,5.70
2018-06-10T06:58:55.745Z,5.20
2018-06-10T07:01:25.130Z,5.40
2018-06-10T07:03:53.505Z,4.47
2018-06-10T07:06:21.872Z,5.33
2018-06-10T07:08:50.230Z,5.10
2018-06-10T07:11:18.609Z,5.00
2018-06-10T07:13:46.989Z,5.40
2018-06-10T07:16:15.366Z,5.80
2018-06-10T07:18:43.757Z,5.53
2018-06-10T07:21:12.141Z,4.33
2018-06-10T07:23:40.580Z,5.07
2018-06-10T07:26:08.905Z,5.10
2018-06-10T07:28:37.182Z,4.30
2018-06-10T07:31:05.489Z,4.77
2018-06-10T07:33:34.877Z,5.43
2018-06-10T07:36:03.232Z,5.70
2018-06-10T07:38:35.487Z,5.40
2018-06-10T07:41:03.781Z,5.03
2018-06-10T07:43:32.120Z,4.90
2018-06-10T07:46:00.457Z,5.70
2018-06-10T07:48:29.978Z,4.87
2018-06-10T07:50:58.361Z,5.40
2018-06-10T07:53:26.737Z,5.17
2018-06-10T07:55:55.064Z,4.97
2018-06-10T07:58:23.430Z,4.43
2018-06-10T08:00:51.721Z,5.80
2018-06-10T08:03:19.993Z,5.50
2018-06-10T08:05:48.473Z,5.53
2018-06-10T08:08:16.918Z,5.50
2018-06-10T08:10:45.278Z,6.17
2018-06-10T08:13:15.164Z,5.70
2018-06-10T08:15:43.501Z,5.80
2018-06-10T08:18:13.281Z,5.00
2018-06-10T08:20:41.635Z,6.33
2018-06-10T08:23:11.021Z,5.27
2018-06-10T08:25:40.063Z,5.23
2018-06-10T08:28:08.561Z,4.27
2018-06-10T08:30:37.010Z,4.77
2018-06-10T08:33:05.389Z,4.50
2018-06-10T08:35:33.717Z,4.20
2018-06-10T08:38:03.055Z,4.43
2018-06-10T08:40:31.450Z,4.67
2018-06-10T08:42:59.893Z,4.17
2018-06-10T08:45:28.272Z,4.07
2018-06-10T08:47:56.685Z,4.80
2018-06-10T08:50:25.106Z,4.83
2018-06-10T08:52:53.747Z,5.50
2018-06-10T08:55:22.446Z,5.50
2018-06-10T08:57:50.798Z,4.80
2018-06-10T09:00:19.281Z,5.83
2018-06-10T09:02:47.650Z,5.27
2018-06-10T09:05:16.007Z,4.83
2018-06-10T09:07:44.413Z,4.90
2018-06-10T09:10:12.772Z,4.63
2018-06-10T09:12:41.013Z,6.47
2018-06-10T09:15:09.292Z,4.73
2018-06-10T09:17:37.645Z,5.80
2018-06-10T09:20:06.028Z,4.80
2018-06-10T09:22:34.325Z,5.90
2018-06-10T09:25:02.784Z,5.40
2018-06-10T09:27:31.088Z,5.37
2018-06-10T09:29:59.533Z,6.00
2018-06-10T09:32:27.868Z,5.40
2018-06-10T09:34:56.187Z,5.13
2018-06-10T09:37:24.505Z,4.43
2018-06-10T09:39:52.873Z,4.83
2018-06-10T09:42:21.165Z,5.37
2018-06-10T09:44:50.473Z,4.80
2018-06-10T09:47:18.933Z,4.50
2018-06-10T09:49:48.211Z,5.13
2018-06-10T09:52:16.605Z,6.20
2018-06-10T09:54:44.965Z,8.40
2018-06-10T09:57:13.277Z,9.37
2018-06-10T09:59:42.531Z,9.30
2018-06-10T10:02:10.854Z,10.00
2018-06-10T10:04:39.200Z,13.60
2018-06-10T10:07:13.831Z,12.90
2018-06-10T10:09:46.725Z,13.50
2018-06-10T10:12:17.094Z,13.70
2018-06-10T10:14:45.489Z,15.67
2018-06-10T10:17:14.851Z,14.40
2018-06-10T10:19:43.206Z,15.03
2018-06-10T10:22:11.685Z,14.73
2018-06-10T10:24:40.072Z,15.43
2018-06-10T10:27:08.445Z,15.60
2018-06-10T10:29:36.887Z,16.13
2018-06-10T10:32:06.421Z,13.90
2018-06-10T10:34:34.733Z,14.97
2018-06-10T10:37:03.093Z,13.27
2018-06-10T10:39:31.469Z,13.43
2018-06-10T10:41:59.824Z,11.90
2018-06-10T10:44:28.209Z,13.30
2018-06-10T10:46:56.570Z,12.63
2018-06-10T10:49:24.881Z,12.23
2018-06-10T10:51:53.248Z,11.90
2018-06-10T10:54:21.687Z,11.87
2018-06-10T10:56:50.090Z,11.20
2018-06-10T10:59:18.497Z,11.10
2018-06-10T11:01:46.858Z,12.03
2018-06-10T11:04:15.179Z,11.03
2018-06-10T11:06:43.482Z,9.90
2018-06-10T11:09:11.877Z,10.90
2018-06-10T11:11:40.570Z,9.80
2018-06-10T11:14:08.924Z,10.53
2018-06-10T11:16:37.241Z,9.97
2018-06-10T11:19:05.664Z,10.17
2018-06-10T11:21:35.021Z,10.03
2018-06-10T11:24:03.423Z,10.00
2018-06-10T11:26:31.790Z,10.13
2018-06-10T11:29:00.237Z,9.43
2018-06-10T11:31:28.533Z,8.53
2018-06-10T11:33:56.789Z,7.40
2018-06-10T11:36:25.081Z,6.60
2018-06-10T11:38:53.344Z,7.30
2018-06-10T11:41:21.634Z,7.33
2018-06-10T11:43:49.883Z,7.03
2018-06-10T11:46:18.157Z,8.03
2018-06-10T11:48:46.443Z,7.40
2018-06-10T11:51:14.837Z,7.30
2018-06-10T11:53:43.117Z,7.40
2018-06-10T11:56:11.389Z,6.77
2018-06-10T11:58:39.750Z,8.50
2018-06-10T12:01:08.137Z,7.50
2018-06-10T12:03:36.383Z,8.27
2018-06-10T12:06:04.701Z,7.67
2018-06-10T12:08:32.954Z,8.13
2018-06-10T12:11:01.465Z,8.33
2018-06-10T12:13:29.725Z,8.60
2018-06-10T12:15:57.989Z,7.40
2018-06-10T12:18:26.272Z,6.80
2018-06-10T12:20:54.577Z,9.67
2018-06-10T12:23:23.980Z,9.50
2018-06-10T12:25:54.366Z,9.23
2018-06-10T12:28:22.686Z,8.73
2018-06-10T12:30:51.032Z,8.00
2018-06-10T12:33:20.487Z,9.20
2018-06-10T12:35:48.785Z,8.70
2018-06-10T12:38:17.094Z,9.37
2018-06-10T12:40:45.429Z,9.23
2018-06-10T12:43:15.841Z,10.47
2018-06-10T12:45:45.333Z,9.90
2018-06-10T12:48:13.707Z,9.73
2018-06-10T12:50:42.073Z,9.83
2018-06-10T12:53:10.446Z,10.20
2018-06-10T12:55:38.830Z,9.97
2018-06-10T12:58:07.204Z,11.50
2018-06-10T13:00:35.514Z,10.07
2018-06-10T13:03:04.038Z,9.73
2018-06-10T13:05:32.365Z,10.03
2018-06-10T13:08:00.705Z,10.33
2018-06-10T13:10:29.117Z,10.33
2018-06-10T13:12:57.639Z,11.50
2018-06-10T13:15:26.139Z,10.50
2018-06-10T13:17:54.453Z,11.33
2018-06-10T13:20:22.837Z,11.40
2018-06-10T13:22:51.190Z,10.47
2018-06-10T13:25:19.693Z,11.53
2018-06-10T13:27:48.052Z,12.00
2018-06-10T13:30:16.353Z,11.47
2018-06-10T13:32:45.713Z,10.80
2018-06-10T13:35:14.102Z,10.80
2018-06-10T13:37:42.415Z,10.00
2018-06-10T13:40:11.829Z,10.90
2018-06-10T13:42:40.359Z,10.33
2018-06-10T13:45:10.799Z,10.30
2018-06-10T13:47:42.577Z,10.37
2018-06-10T13:50:11.857Z,11.17
2018-06-10T13:52:42.157Z,9.83
2018-06-10T13:55:10.493Z,10.93
2018-06-10T13:57:39.870Z,10.40
2018-06-10T14:00:09.279Z,10.57
2018-06-10T14:02:39.588Z,11.17
2018-06-10T14:05:07.902Z,11.00
2018-06-10T14:07:36.244Z,10.33
2018-06-10T14:10:06.586Z,10.50
2018-06-10T14:12:34.850Z,10.80
2018-06-10T14:15:04.233Z,10.20
2018-06-10T14:17:32.549Z,10.03
2018-06-10T14:20:00.870Z,10.60
2018-06-10T14:22:29.141Z,9.47
2018-06-10T14:24:57.392Z,10.20
2018-06-10T14:27:25.691Z,9.70
2018-06-10T14:29:53.995Z,10.50
2018-06-10T14:32:22.453Z,9.93
2018-06-10T14:34:50.713Z,9.70
2018-06-10T14:37:19.001Z,9.10
2018-06-10T14:39:47.327Z,9.37
2018-06-10T14:42:15.686Z,10.03
2018-06-10T14:44:44.120Z,9.40
2018-06-10T14:47:12.550Z,8.30
2018-06-10T14:49:40.874Z,10.10
2018-06-10T14:52:09.517Z,11.27
2018-06-10T14:54:39.839Z,10.70
2018-06-10T14:57:09.234Z,10.63
2018-06-10T14:59:37.593Z,10.17
2018-06-10T15:02:06.022Z,11.13
2018-06-10T15:04:34.279Z,12.03
2018-06-10T15:07:02.575Z,11.30
2018-06-10T15:09:31.913Z,11.10
2018-06-10T15:12:00.201Z,10.77
2018-06-10T15:14:28.477Z,10.23
2018-06-10T15:16:57.830Z,11.10
2018-06-10T15:19:26.130Z,10.20
2018-06-10T15:21:54.458Z,11.20
2018-06-10T15:24:22.802Z,10.67
2018-06-10T15:26:51.075Z,10.60
2018-06-10T15:29:19.349Z,10.40
2018-06-10T15:31:47.645Z,11.07
2018-06-10T15:34:15.912Z,10.70
2018-06-10T15:36:44.214Z,11.40
2018-06-10T15:39:13.493Z,11.00
2018-06-10T15:41:41.792Z,10.90
2018-06-10T15:44:10.050Z,10.30
2018-06-10T15:46:38.431Z,10.63
2018-06-10T15:49:06.707Z,10.37
2018-06-10T15:51:35.129Z,12.70
2018-06-10T15:54:03.457Z,12.17
2018-06-10T15:56:31.963Z,12.30
2018-06-10T15:59:00.311Z,13.87
2018-06-10T16:01:28.602Z,19.77
2018-06-10T16:03:56.894Z,13.80
2018-06-10T16:06:25.176Z,13.90
2018-06-10T16:08:53.454Z,13.63
2018-06-10T16:11:21.713Z,13.40
2018-06-10T16:13:50.025Z,15.07
2018-06-10T16:16:18.722Z,14.70
2018-06-10T16:18:47.017Z,13.67
2018-06-10T16:21:15.332Z,20.27
2018-06-10T16:23:43.890Z,13.13
2018-06-10T16:26:12.164Z,13.53
2018-06-10T16:28:41.493Z,17.10
2018-06-10T16:31:09.827Z,15.73
2018-06-10T16:33:38.137Z,14.93
2018-06-10T16:36:06.490Z,14.70
2018-06-10T16:38:34.773Z,15.30
2018-06-10T16:41:03.097Z,16.10
2018-06-10T16:43:31.425Z,14.87
2018-06-10T16:45:59.697Z,18.37
2018-06-10T16:48:28.006Z,14.90
2018-06-10T16:50:56.470Z,13.40
2018-06-10T16:53:27.113Z,14.57
2018-06-10T16:55:55.405Z,14.77
2018-06-10T16:58:23.650Z,15.33
2018-06-10T17:00:51.938Z,15.43
2018-06-10T17:03:20.173Z,14.93
2018-06-10T17:05:48.457Z,14.10
2018-06-10T17:08:16.734Z,14.27
2018-06-10T17:10:45.061Z,14.93
2018-06-10T17:13:13.393Z,13.83
2018-06-10T17:15:41.687Z,14.47
2018-06-10T17:18:09.957Z,12.97
2018-06-10T17:20:38.230Z,13.70
2018-06-10T17:23:06.591Z,13.30
2018-06-10T17:25:34.893Z,13.13
2018-06-10T17:28:03.295Z,12.90
2018-06-10T17:30:31.663Z,11.83
2018-06-10T17:32:59.924Z,13.50
2018-06-10T17:35:28.230Z,14.87
2018-06-10T17:37:56.557Z,13.70
2018-06-10T17:40:24.833Z,13.77
2018-06-10T17:42:53.181Z,13.73
2018-06-10T17:45:21.486Z,13.73
2018-06-10T17:47:49.801Z,14.17
2018-06-10T17:50:18.078Z,12.73
2018-06-10T17:52:46.443Z,13.30
2018-06-10T17:55:14.922Z,13.00
2018-06-10T17:57:43.398Z,13.40
2018-06-10T18:00:12.149Z,14.43
2018-06-10T18:02:40.564Z,13.87
2018-06-10T18:05:08.937Z,14.40
2018-06-10T18:07:37.225Z,13.70
2018-06-10T18:10:05.609Z,13.30
2018-06-10T18:12:33.932Z,13.23
2018-06-10T18:15:02.225Z,15.27
2018-06-10T18:17:30.555Z,14.37
2018-06-10T18:19:58.916Z,15.30
2018-06-10T18:22:27.197Z,13.83
2018-06-10T18:24:55.561Z,14.80
2018-06-10T18:27:24.117Z,12.93
2018-06-10T18:29:52.422Z,13.10
2018-06-10T18:32:20.785Z,14.53
2018-06-10T18:34:49.082Z,14.87
2018-06-10T18:37:17.519Z,14.90
2018-06-10T18:39:45.921Z,16.50
2018-06-10T18:42:14.281Z,17.50
2018-06-10T18:44:42.574Z,14.50
2018-06-10T18:47:12.990Z,17.17
2018-06-10T18:49:41.293Z,15.90
2018-06-10T18:52:09.666Z,16.23
2018-06-10T18:54:37.936Z,14.47
2018-06-10T18:57:06.197Z,13.90
2018-06-10T18:59:34.669Z,16.07
2018-06-10T19:02:04.056Z,15.00
2018-06-10T19:04:32.398Z,17.13
2018-06-10T19:07:00.777Z,20.03
2018-06-10T19:09:31.073Z,17.90
2018-06-10T19:11:59.401Z,20.47
2018-06-10T19:14:27.816Z,22.13
2018-06-10T19:16:56.146Z,19.63
2018-06-10T19:19:24.593Z,18.73
2018-06-10T19:21:53.050Z,17.70
2018-06-10T19:24:21.338Z,18.67
2018-06-10T19:26:49.653Z,18.07
2018-06-10T19:29:18.035Z,18.47
2018-06-10T19:31:46.556Z,16.70
2018-06-10T19:34:14.882Z,17.57
2018-06-10T19:36:43.237Z,15.50
2018-06-10T19:39:11.616Z,16.03
2018-06-10T19:41:39.908Z,16.33
2018-06-10T19:44:08.252Z,14.90
2018-06-10T19:46:36.548Z,14.80
2018-06-10T19:49:05.872Z,16.30
2018-06-10T19:51:34.165Z,13.90
2018-06-10T19:54:02.481Z,14.53
2018-06-10T19:56:30.743Z,14.87
2018-06-10T19:58:59.090Z,15.57
2018-06-10T20:01:27.472Z,15.93
2018-06-10T20:03:55.913Z,16.40
2018-06-10T20:06:24.275Z,15.50
2018-06-10T20:08:52.677Z,14.70
2018-06-10T20:11:21.045Z,13.80
2018-06-10T20:13:49.432Z,15.40
2018-06-10T20:16:17.785Z,14.40
2018-06-10T20:18:46.094Z,13.90
2018-06-10T20:21:14.449Z,13.43
2018-06-10T20:23:42.844Z,13.40
2018-06-10T20:26:11.197Z,14.20
2018-06-10T20:28:39.529Z,13.20
2018-06-10T20:31:08.879Z,13.37
2018-06-10T20:33:37.169Z,12.30
2018-06-10T20:36:05.730Z,12.67
2018-06-10T20:38:34.015Z,12.70
2018-06-10T20:41:02.273Z,12.53
2018-06-10T20:43:30.592Z,13.50
2018-06-10T20:45:58.853Z,13.97
2018-06-10T20:48:27.368Z,13.40
2018-06-10T20:50:55.702Z,14.20
2018-06-10T20:53:23.976Z,13.47
2018-06-10T20:55:53.265Z,13.63
2018-06-10T20:58:21.550Z,13.57
2018-06-10T21:00:49.796Z,12.33
2018-06-10T21:03:18.085Z,13.37
2018-06-10T21:05:46.341Z,12.87
2018-06-10T21:08:14.735Z,13.33
2018-06-10T21:10:42.973Z,13.77
2018-06-10T21:13:11.311Z,12.47
2018-06-10T21:15:39.585Z,13.50
2018-06-10T21:18:07.957Z,12.87
2018-06-10T21:20:37.290Z,12.33
2018-06-10T21:23:05.650Z,11.40
2018-06-10T21:25:33.930Z,12.13
2018-06-10T21:28:02.321Z,11.80
2018-06-10T21:30:30.709Z,12.00
2018-06-10T21:32:59.041Z,12.03
2018-06-10T21:35:27.353Z,12.00
2018-06-10T21:37:55.702Z,13.00
2018-06-10T21:40:24.018Z,13.97
2018-06-10T21:42:52.357Z,12.37
2018-06-10T21:45:20.688Z,14.13
2018-06-10T21:47:48.934Z,12.03
2018-06-10T21:50:17.310Z,11.30
2018-06-10T21:52:45.669Z,12.00
2018-06-10T21:55:20.451Z,10.97
2018-06-10T21:57:51.843Z,10.90
2018-06-10T22:00:53.636Z,11.73
2018-06-10T22:06:36.983Z,11.30
2018-06-10T22:09:07.386Z,10.97
2018-06-10T22:13:06.821Z,10.73
2018-06-10T22:15:41.102Z,10.10
2018-06-10T22:18:24.659Z,12.00
2018-06-10T22:20:52.953Z,11.40
2018-06-10T22:23:22.293Z,10.50
2018-06-10T22:25:50.564Z,10.10
2018-06-10T22:28:18.874Z,12.50
2018-06-10T22:30:47.154Z,10.57
2018-06-10T22:33:15.453Z,11.87
2018-06-10T22:35:44.737Z,12.40
2018-06-10T22:38:13.049Z,12.03
2018-06-10T22:40:43.385Z,10.93
2018-06-10T22:43:11.701Z,13.40
2018-06-10T22:45:39.989Z,13.13
2018-06-10T22:48:08.309Z,14.37
2018-06-10T22:50:37.576Z,14.93
2018-06-10T22:53:18.914Z,15.10
2018-06-10T22:55:47.194Z,15.00
2018-06-10T22:58:16.529Z,15.83
2018-06-10T23:00:44.847Z,15.07
2018-06-10T23:03:14.205Z,14.30
2018-06-10T23:05:42.485Z,15.20
2018-06-10T23:08:11.007Z,13.50
2018-06-10T23:10:40.397Z,12.87
2018-06-10T23:13:08.689Z,12.30
2018-06-10T23:15:37.029Z,11.93
2018-06-10T23:18:05.305Z,12.87
2018-06-10T23:20:34.601Z,11.60
2018-06-10T23:23:03.023Z,12.40
2018-06-10T23:25:31.394Z,12.80
2018-06-10T23:27:59.680Z,14.20
2018-06-10T23:30:28.025Z,12.17
2018-06-10T23:32:56.320Z,11.90
2018-06-10T23:35:24.637Z,13.23
2018-06-10T23:37:52.913Z,11.67
2018-06-10T23:40:21.277Z,14.10
2018-06-10T23:42:49.643Z,11.10
2018-06-10T23:45:18.033Z,11.93
2018-06-10T23:47:46.325Z,11.70
2018-06-10T23:50:14.634Z,10.70
2018-06-10T23:52:42.969Z,10.67
2018-06-10T23:55:11.241Z,10.07
2018-06-10T23:57:39.514Z,9.70
